Terminal Aerodrome Forecast
Issued by NWS

Home | Current Version | Previous Version | Text Only | Print | Product List | Glossary On
Versions: 1 2 3 4 5 6 7 8 9 10 11 12 13 14 15 16 17
000
FTUS45 KVEF 260547 AAA
TAFHND
TAF AMD
KHND 260547Z 2606/2706 18008KT P6SM OVC110
     FM261800 15012KT P6SM FEW120
     FM262300 19012KT P6SM SCT120=

USA.gov is the U.S. government's official web portal to all federal, state and local government web resources and services.